createdAt,value
2023-04-19T00:00:17.759Z,100.00
2023-04-19T00:03:14.873Z,100.00
2023-04-19T00:06:15.125Z,100.00
2023-04-19T00:09:11.982Z,100.00
2023-04-19T00:12:08.835Z,100.00
2023-04-19T00:15:06.792Z,100.00
2023-04-19T00:18:03.953Z,100.00
2023-04-19T00:21:00.824Z,100.00
2023-04-19T00:23:57.674Z,100.00
2023-04-19T00:26:54.534Z,100.00
2023-04-19T00:29:51.532Z,100.00
2023-04-19T00:32:48.918Z,100.00
2023-04-19T00:35:45.964Z,100.00
2023-04-19T00:38:42.789Z,100.00
2023-04-19T00:41:39.650Z,100.00
2023-04-19T00:44:36.480Z,100.00
2023-04-19T00:47:33.422Z,100.00
2023-04-19T00:50:30.908Z,100.00
2023-04-19T00:53:27.767Z,100.00
2023-04-19T00:56:27.367Z,100.00
2023-04-19T00:59:25.150Z,100.00
2023-04-19T01:02:22.397Z,100.00
2023-04-19T01:05:19.541Z,100.00
2023-04-19T01:08:16.613Z,100.00
2023-04-19T01:11:13.441Z,100.00
2023-04-19T01:14:10.291Z,100.00
2023-04-19T01:17:08.502Z,100.00
2023-04-19T01:20:07.956Z,100.00
2023-04-19T01:23:04.904Z,100.00
2023-04-19T01:26:04.860Z,100.00
2023-04-19T01:29:01.675Z,100.00
2023-04-19T01:31:58.498Z,100.00
2023-04-19T01:34:55.408Z,100.00
2023-04-19T01:37:55.436Z,100.00
2023-04-19T01:40:52.245Z,100.00
2023-04-19T01:43:50.187Z,100.00
2023-04-19T01:46:47.041Z,100.00
2023-04-19T01:49:43.867Z,100.00
2023-04-19T01:52:40.736Z,100.00
2023-04-19T01:55:37.640Z,100.00
2023-04-19T01:58:34.466Z,100.00
2023-04-19T02:01:31.299Z,100.00
2023-04-19T02:04:28.115Z,100.00
2023-04-19T02:07:24.971Z,100.00
2023-04-19T02:10:21.855Z,100.00
2023-04-19T02:13:18.697Z,100.00
2023-04-19T02:16:15.730Z,100.00
2023-04-19T02:19:12.558Z,100.00
2023-04-19T02:22:09.383Z,100.00
2023-04-19T02:25:06.954Z,100.00
2023-04-19T02:28:03.824Z,100.00
2023-04-19T02:31:08.261Z,100.00
2023-04-19T02:34:05.221Z,100.00
2023-04-19T02:37:03.502Z,100.00
2023-04-19T02:40:00.386Z,100.00
2023-04-19T02:42:57.298Z,100.00
2023-04-19T02:45:54.153Z,100.00
2023-04-19T02:48:51.303Z,100.00
2023-04-19T02:51:48.329Z,100.00
2023-04-19T02:54:45.234Z,100.00
2023-04-19T02:57:42.075Z,100.00
2023-04-19T03:00:38.968Z,100.00
2023-04-19T03:03:35.840Z,100.00
2023-04-19T03:06:32.753Z,100.00
2023-04-19T03:09:29.563Z,100.00
2023-04-19T03:12:26.374Z,100.00
2023-04-19T03:15:23.209Z,100.00
2023-04-19T03:18:20.852Z,100.00
2023-04-19T03:21:17.752Z,100.00
2023-04-19T03:24:14.904Z,100.00
2023-04-19T03:27:11.932Z,100.00
2023-04-19T03:30:09.603Z,100.00
2023-04-19T03:33:06.857Z,100.00
2023-04-19T03:36:03.927Z,100.00
2023-04-19T03:39:02.433Z,100.00
2023-04-19T03:41:59.253Z,100.00
2023-04-19T03:44:56.472Z,100.00
2023-04-19T03:47:53.351Z,100.00
2023-04-19T03:50:50.211Z,100.00
2023-04-19T03:53:47.029Z,100.00
2023-04-19T03:56:43.850Z,100.00
2023-04-19T03:59:40.660Z,100.00
2023-04-19T04:02:39.724Z,100.00
2023-04-19T04:05:36.901Z,100.00
2023-04-19T04:08:33.821Z,100.00
2023-04-19T04:11:30.895Z,100.00
2023-04-19T04:14:27.747Z,100.00
2023-04-19T04:17:24.692Z,100.00
2023-04-19T04:20:21.797Z,100.00
2023-04-19T04:23:18.618Z,100.00
2023-04-19T04:26:15.491Z,100.00
2023-04-19T04:29:12.507Z,100.00
2023-04-19T04:32:10.576Z,100.00
2023-04-19T04:35:09.433Z,100.00
2023-04-19T04:38:17.638Z,100.00
2023-04-19T04:41:22.602Z,100.00
2023-04-19T04:44:20.749Z,100.00
2023-04-19T04:47:18.192Z,100.00
2023-04-19T04:50:15.019Z,100.00
2023-04-19T04:53:14.778Z,100.00
2023-04-19T04:56:11.722Z,100.00
2023-04-19T04:59:08.550Z,100.00
2023-04-19T05:02:05.427Z,100.00
2023-04-19T05:05:03.285Z,100.00
2023-04-19T05:08:00.130Z,100.00
2023-04-19T05:10:57.031Z,100.00
2023-04-19T05:13:53.950Z,100.00
2023-04-19T05:16:50.784Z,100.00
2023-04-19T05:19:47.647Z,100.00
2023-04-19T05:22:44.457Z,100.00
2023-04-19T05:25:41.376Z,100.00
2023-04-19T05:28:38.854Z,100.00
2023-04-19T05:31:35.694Z,100.00
2023-04-19T05:34:33.494Z,100.00
2023-04-19T05:37:30.600Z,100.00
2023-04-19T05:40:28.347Z,100.00
2023-04-19T05:43:25.399Z,100.00
2023-04-19T05:46:22.245Z,100.00
2023-04-19T05:49:19.272Z,100.00
2023-04-19T05:52:16.428Z,100.00
2023-04-19T05:55:13.625Z,100.00
2023-04-19T05:58:10.776Z,100.00
2023-04-19T06:01:07.633Z,100.00
2023-04-19T06:04:05.391Z,100.00
2023-04-19T06:07:04.574Z,100.00
2023-04-19T06:10:03.278Z,100.00
2023-04-19T06:13:00.166Z,100.00
2023-04-19T06:15:57.243Z,100.00
2023-04-19T06:18:54.089Z,100.00
2023-04-19T06:21:51.239Z,100.00
2023-04-19T06:24:48.704Z,100.00
2023-04-19T06:27:45.658Z,100.00
2023-04-19T06:30:42.480Z,100.00
2023-04-19T06:33:39.449Z,100.00
2023-04-19T06:36:36.430Z,100.00
2023-04-19T06:39:33.339Z,100.00
2023-04-19T06:42:30.260Z,100.00
2023-04-19T06:45:27.205Z,100.00
2023-04-19T06:48:24.136Z,100.00
2023-04-19T06:51:21.099Z,100.00
2023-04-19T06:54:18.131Z,100.00
2023-04-19T06:57:16.296Z,100.00
2023-04-19T07:00:14.142Z,100.00
2023-04-19T07:03:11.330Z,100.00
2023-04-19T07:06:08.322Z,100.00
2023-04-19T07:09:06.628Z,100.00
2023-04-19T07:12:06.076Z,100.00
2023-04-19T07:15:03.200Z,100.00
2023-04-19T07:18:00.634Z,100.00
2023-04-19T07:20:57.610Z,100.00
2023-04-19T07:23:54.812Z,100.00
2023-04-19T07:26:51.887Z,100.00
2023-04-19T07:29:48.904Z,100.00
2023-04-19T07:32:46.516Z,100.00
2023-04-19T07:35:43.490Z,100.00
2023-04-19T07:38:40.405Z,100.00
2023-04-19T07:41:37.336Z,100.00
2023-04-19T07:44:34.387Z,100.00
2023-04-19T07:47:31.458Z,100.00
2023-04-19T07:50:28.486Z,100.00
2023-04-19T07:53:25.877Z,100.00
2023-04-19T07:56:23.163Z,100.00
2023-04-19T07:59:20.135Z,100.00
2023-04-19T08:02:19.161Z,100.00
2023-04-19T08:05:17.565Z,100.00
2023-04-19T08:08:14.640Z,100.00
2023-04-19T08:11:11.490Z,100.00
2023-04-19T08:14:18.607Z,100.00
2023-04-19T08:17:28.034Z,100.00
2023-04-19T08:20:27.800Z,100.00
2023-04-19T08:23:29.740Z,100.00
2023-04-19T08:26:34.890Z,100.00
2023-04-19T08:29:33.524Z,100.00
2023-04-19T08:32:30.550Z,100.00
2023-04-19T08:35:27.550Z,95.65
2023-04-19T08:38:24.386Z,84.02
2023-04-19T08:41:23.331Z,95.38
2023-04-19T08:44:35.523Z,85.10
2023-04-19T08:47:37.239Z,78.72
2023-04-19T08:50:55.770Z,96.65
2023-04-19T08:53:59.474Z,86.79
2023-04-19T08:57:00.264Z,93.64
2023-04-19T08:59:58.187Z,74.85
2023-04-19T09:02:55.895Z,74.21
2023-04-19T09:05:53.120Z,53.44
2023-04-19T09:08:52.349Z,55.60
2023-04-19T09:11:49.915Z,54.15
2023-04-19T09:15:00.553Z,55.39
2023-04-19T09:18:10.230Z,58.02
2023-04-19T09:21:07.387Z,75.30
2023-04-19T09:24:04.829Z,70.75
2023-04-19T09:27:01.664Z,64.26
2023-04-19T09:30:01.078Z,71.48
2023-04-19T09:32:58.092Z,90.57
2023-04-19T09:35:54.964Z,80.59
2023-04-19T09:38:51.783Z,77.65
2023-04-19T09:41:55.025Z,70.39
2023-04-19T09:48:07.615Z,74.47
2023-04-19T09:51:09.817Z,52.54
2023-04-19T09:54:11.549Z,62.95
2023-04-19T09:57:08.750Z,56.77
2023-04-19T10:00:08.852Z,56.48
2023-04-19T10:03:07.852Z,58.58
2023-04-19T10:06:10.564Z,50.59
2023-04-19T10:09:13.721Z,64.50
2023-04-19T10:12:24.044Z,70.61
2023-04-19T10:15:33.786Z,49.45
2023-04-19T10:18:40.980Z,61.10
2023-04-19T10:21:38.526Z,51.69
2023-04-19T10:24:35.364Z,56.83
2023-04-19T10:27:35.662Z,55.40
2023-04-19T10:30:32.670Z,73.91
2023-04-19T10:33:37.488Z,47.31
2023-04-19T10:36:34.364Z,51.08
2023-04-19T10:39:42.963Z,52.22
2023-04-19T10:43:10.503Z,53.77
2023-04-19T10:46:15.807Z,69.95
2023-04-19T10:49:13.609Z,58.86
2023-04-19T10:52:29.860Z,46.25
2023-04-19T10:55:26.702Z,43.41
2023-04-19T10:58:23.525Z,44.31
2023-04-19T11:01:41.040Z,51.78
2023-04-19T11:04:52.793Z,49.70
2023-04-19T11:07:49.701Z,48.78
2023-04-19T11:10:46.963Z,48.59
2023-04-19T11:13:44.132Z,56.42
2023-04-19T11:16:45.638Z,53.07
2023-04-19T11:20:00.049Z,46.43
2023-04-19T11:23:00.959Z,45.25
2023-04-19T11:25:58.997Z,47.19
2023-04-19T11:28:55.867Z,45.98
2023-04-19T11:31:52.796Z,53.15
2023-04-19T11:34:49.649Z,47.88
2023-04-19T11:37:46.603Z,46.38
2023-04-19T11:40:43.682Z,76.23
2023-04-19T11:43:41.386Z,48.73
2023-04-19T11:46:38.257Z,41.47
2023-04-19T11:49:35.339Z,44.24
2023-04-19T11:52:35.805Z,52.11
2023-04-19T11:55:33.798Z,76.12
2023-04-19T11:58:36.202Z,52.95
2023-04-19T12:01:33.076Z,67.72
2023-04-19T12:04:30.038Z,57.36
2023-04-19T12:07:27.102Z,51.24
2023-04-19T12:10:23.990Z,53.22
2023-04-19T12:13:20.795Z,50.08
2023-04-19T12:16:28.205Z,51.08
2023-04-19T12:19:25.129Z,52.50
2023-04-19T12:22:24.081Z,53.75
2023-04-19T12:25:20.933Z,93.98
2023-04-19T12:28:17.884Z,61.52
2023-04-19T12:31:14.978Z,63.64
2023-04-19T12:34:11.814Z,57.23
2023-04-19T12:37:08.690Z,72.26
2023-04-19T12:40:06.508Z,77.76
2023-04-19T12:43:03.443Z,58.37
2023-04-19T12:46:01.485Z,44.99
2023-04-19T12:48:58.445Z,55.82
2023-04-19T12:51:57.176Z,100.00
2023-04-19T12:54:54.460Z,81.89
2023-04-19T12:57:51.262Z,67.68
2023-04-19T13:00:49.127Z,100.00
2023-04-19T13:03:46.261Z,64.13
2023-04-19T13:06:43.162Z,64.89
2023-04-19T13:09:40.025Z,59.68
2023-04-19T13:12:37.397Z,45.68
2023-04-19T13:15:34.254Z,58.96
2023-04-19T13:18:31.118Z,76.82
2023-04-19T13:21:27.984Z,73.57
2023-04-19T13:24:24.907Z,70.13
2023-04-19T13:27:21.724Z,64.60
2023-04-19T13:30:18.690Z,62.25
2023-04-19T13:33:15.622Z,58.56
2023-04-19T13:36:12.427Z,52.63
2023-04-19T13:39:10.105Z,55.95
2023-04-19T13:42:06.966Z,61.62
2023-04-19T13:45:04.554Z,77.24
2023-04-19T13:48:01.548Z,61.37
2023-04-19T13:50:59.506Z,74.17
2023-04-19T13:53:56.338Z,73.69
2023-04-19T13:56:53.180Z,63.84
2023-04-19T13:59:50.011Z,53.61
2023-04-19T14:02:47.989Z,59.11
2023-04-19T14:05:46.680Z,53.95
2023-04-19T14:08:43.632Z,48.94
2023-04-19T14:11:40.501Z,48.01
2023-04-19T14:14:37.310Z,51.42
2023-04-19T14:17:35.961Z,47.54
2023-04-19T14:20:33.003Z,52.03
2023-04-19T14:23:29.828Z,52.73
2023-04-19T14:26:27.710Z,49.07
2023-04-19T14:29:24.649Z,45.70
2023-04-19T14:32:26.420Z,43.43
2023-04-19T14:35:24.196Z,52.98
2023-04-19T14:38:21.207Z,40.51
2023-04-19T14:41:18.024Z,45.42
2023-04-19T14:44:14.850Z,54.95
2023-04-19T14:47:12.008Z,54.99
2023-04-19T14:50:09.404Z,51.68
2023-04-19T14:53:06.253Z,50.44
2023-04-19T14:56:06.624Z,53.32
2023-04-19T14:59:05.346Z,46.35
2023-04-19T15:02:02.188Z,90.13
2023-04-19T15:04:59.294Z,57.96
2023-04-19T15:07:56.464Z,58.72
2023-04-19T15:10:53.265Z,82.99
2023-04-19T15:13:50.166Z,98.54
2023-04-19T15:16:46.965Z,89.85
2023-04-19T15:19:46.818Z,93.35
2023-04-19T15:22:43.661Z,91.56
2023-04-19T15:25:40.475Z,73.79
2023-04-19T15:28:38.450Z,76.94
2023-04-19T15:31:35.326Z,63.38
2023-04-19T15:34:32.194Z,68.85
2023-04-19T15:37:29.031Z,94.18
2023-04-19T15:40:26.033Z,54.52
2023-04-19T15:43:24.183Z,53.78
2023-04-19T15:46:21.067Z,54.73
2023-04-19T15:49:18.211Z,53.82
2023-04-19T15:52:15.303Z,61.98
2023-04-19T15:55:12.134Z,65.57
2023-04-19T15:58:09.181Z,85.41
2023-04-19T16:01:11.724Z,94.73
2023-04-19T16:04:08.841Z,87.46
2023-04-19T16:07:06.034Z,100.00
2023-04-19T16:10:05.783Z,100.00
2023-04-19T16:13:08.503Z,100.00
2023-04-19T16:16:06.047Z,100.00
2023-04-19T16:19:02.966Z,100.00
2023-04-19T16:22:02.101Z,100.00
2023-04-19T16:24:58.932Z,100.00
2023-04-19T16:27:56.093Z,100.00
2023-04-19T16:30:52.944Z,96.63
2023-04-19T16:33:49.768Z,100.00
2023-04-19T16:36:46.589Z,100.00
2023-04-19T16:39:43.606Z,100.00
2023-04-19T16:42:40.754Z,100.00
2023-04-19T16:45:37.615Z,94.30
2023-04-19T16:48:34.501Z,94.92
2023-04-19T16:51:31.823Z,98.41
2023-04-19T16:54:28.636Z,98.78
2023-04-19T16:57:25.939Z,97.80
2023-04-19T17:00:23.391Z,100.00
2023-04-19T17:03:20.497Z,97.79
2023-04-19T17:06:17.494Z,100.00
2023-04-19T17:09:14.392Z,100.00
2023-04-19T17:12:11.289Z,100.00
2023-04-19T17:15:08.656Z,100.00
2023-04-19T17:18:05.841Z,100.00
2023-04-19T17:21:02.751Z,100.00
2023-04-19T17:23:59.604Z,100.00
2023-04-19T17:26:56.756Z,100.00
2023-04-19T17:29:53.666Z,100.00
2023-04-19T17:32:51.181Z,100.00
2023-04-19T17:35:48.047Z,100.00
2023-04-19T17:38:45.043Z,100.00
2023-04-19T17:41:42.177Z,100.00
2023-04-19T17:44:39.005Z,100.00
2023-04-19T17:47:35.856Z,100.00
2023-04-19T17:50:32.783Z,100.00
2023-04-19T17:53:29.650Z,100.00
2023-04-19T17:56:26.808Z,100.00
2023-04-19T17:59:23.623Z,100.00
2023-04-19T18:02:20.833Z,100.00
2023-04-19T18:05:18.402Z,100.00
2023-04-19T18:08:15.239Z,100.00
2023-04-19T18:11:12.168Z,100.00
2023-04-19T18:14:09.062Z,100.00
2023-04-19T18:17:06.384Z,100.00
2023-04-19T18:20:05.373Z,100.00
2023-04-19T18:23:02.331Z,100.00
2023-04-19T18:26:03.959Z,100.00
2023-04-19T18:29:00.793Z,100.00
2023-04-19T18:31:57.672Z,100.00
2023-04-19T18:34:54.597Z,100.00
2023-04-19T18:37:51.421Z,100.00
2023-04-19T18:40:48.332Z,100.00
2023-04-19T18:44:00.588Z,100.00
2023-04-19T18:47:03.063Z,100.00
2023-04-19T18:50:05.299Z,100.00
2023-04-19T18:53:03.319Z,100.00
2023-04-19T18:56:01.700Z,100.00
2023-04-19T18:58:59.844Z,100.00
2023-04-19T19:01:57.197Z,100.00
2023-04-19T19:04:58.335Z,100.00
2023-04-19T19:07:58.486Z,100.00
2023-04-19T19:13:55.234Z,100.00
2023-04-19T19:16:52.938Z,100.00
2023-04-19T19:19:50.145Z,100.00
2023-04-19T19:22:47.239Z,100.00
2023-04-19T19:25:44.069Z,100.00
2023-04-19T19:28:41.128Z,100.00
2023-04-19T19:31:38.981Z,100.00
2023-04-19T19:34:47.532Z,100.00
2023-04-19T19:37:51.304Z,100.00
2023-04-19T19:41:24.659Z,100.00
2023-04-19T19:44:05.193Z,100.00
2023-04-19T19:47:02.083Z,100.00
2023-04-19T19:52:59.030Z,100.00
2023-04-19T19:55:56.778Z,100.00
2023-04-19T19:58:53.773Z,100.00
2023-04-19T20:01:50.622Z,100.00
2023-04-19T20:04:47.575Z,100.00
2023-04-19T20:08:00.938Z,100.00
2023-04-19T20:10:58.477Z,100.00
2023-04-19T20:13:55.362Z,100.00
2023-04-19T20:16:52.653Z,100.00
2023-04-19T20:19:52.202Z,100.00
2023-04-19T20:22:49.069Z,100.00
2023-04-19T20:25:46.470Z,100.00
2023-04-19T20:28:43.312Z,100.00
2023-04-19T20:31:42.788Z,100.00
2023-04-19T20:34:39.870Z,100.00
2023-04-19T20:37:39.671Z,100.00
2023-04-19T20:40:36.568Z,100.00
2023-04-19T20:43:34.410Z,100.00
2023-04-19T20:46:34.603Z,100.00
2023-04-19T20:49:31.439Z,100.00
2023-04-19T20:52:28.316Z,100.00
2023-04-19T20:55:25.307Z,100.00
2023-04-19T20:58:22.202Z,100.00
2023-04-19T21:01:19.031Z,100.00
2023-04-19T21:04:16.307Z,100.00
2023-04-19T21:07:13.369Z,100.00
2023-04-19T21:10:11.368Z,100.00
2023-04-19T21:13:08.232Z,100.00
2023-04-19T21:16:05.445Z,100.00
2023-04-19T21:19:02.369Z,100.00
2023-04-19T21:21:59.236Z,100.00
2023-04-19T21:24:56.071Z,100.00
2023-04-19T21:27:52.901Z,100.00
2023-04-19T21:30:51.160Z,100.00
2023-04-19T21:33:48.112Z,100.00
2023-04-19T21:36:44.929Z,100.00
2023-04-19T21:39:41.749Z,100.00
2023-04-19T21:42:38.631Z,100.00
2023-04-19T21:45:35.481Z,100.00
2023-04-19T21:48:32.510Z,100.00
2023-04-19T21:51:29.312Z,100.00
2023-04-19T21:54:33.329Z,100.00
2023-04-19T21:57:31.764Z,100.00
2023-04-19T22:00:28.666Z,100.00
2023-04-19T22:03:25.879Z,100.00
2023-04-19T22:06:22.982Z,100.00
2023-04-19T22:09:19.829Z,100.00
2023-04-19T22:12:16.660Z,100.00
2023-04-19T22:15:14.164Z,100.00
2023-04-19T22:18:10.995Z,100.00
2023-04-19T22:21:09.800Z,100.00
2023-04-19T22:24:07.366Z,100.00
2023-04-19T22:27:04.206Z,100.00
2023-04-19T22:30:01.048Z,100.00
2023-04-19T22:32:57.898Z,100.00
2023-04-19T22:35:54.792Z,100.00
2023-04-19T22:38:51.615Z,100.00
2023-04-19T22:41:48.481Z,100.00
2023-04-19T22:44:45.412Z,100.00
2023-04-19T22:47:42.262Z,100.00
2023-04-19T22:50:39.101Z,100.00
2023-04-19T22:53:37.468Z,100.00
2023-04-19T22:56:34.319Z,100.00
2023-04-19T22:59:31.129Z,100.00
2023-04-19T23:02:28.032Z,100.00
2023-04-19T23:05:26.908Z,100.00
2023-04-19T23:08:24.956Z,100.00
2023-04-19T23:11:25.015Z,100.00
2023-04-19T23:14:22.142Z,100.00
2023-04-19T23:17:19.952Z,100.00
2023-04-19T23:20:17.152Z,100.00
2023-04-19T23:23:14.038Z,100.00
2023-04-19T23:26:14.359Z,100.00
2023-04-19T23:29:11.562Z,100.00
2023-04-19T23:32:08.470Z,100.00
2023-04-19T23:35:05.953Z,100.00
2023-04-19T23:38:02.807Z,100.00
2023-04-19T23:40:59.803Z,100.00
2023-04-19T23:43:56.652Z,100.00
2023-04-19T23:46:53.522Z,100.00
2023-04-19T23:49:50.496Z,100.00
2023-04-19T23:52:47.323Z,100.00
2023-04-19T23:55:44.150Z,100.00
2023-04-19T23:58:41.247Z,100.00
